Time,TemperatureF,DewpointF,PressureIn,WindDirection,WindDirectionDegrees,WindSpeedMPH,WindSpeedGustMPH,Humidity,HourlyPrecipIn,Conditions,Clouds,dailyrainin,SoftwareType,DateUTC
2013-01-28 00:03:00,36.0,35.7,29.89,South,173,7.3,9.2,99,0.00,,,0.00,WUHU216WMR100,2013-01-28 06:03:00,
2013-01-28 00:08:00,36.1,35.8,29.89,SSE,165,6.0,9.2,99,0.00,,,0.00,WUHU216WMR100,2013-01-28 06:08:00,
2013-01-28 00:13:00,36.1,35.8,29.89,South,180,6.6,8.1,99,0.00,,,0.00,WUHU216WMR100,2013-01-28 06:13:00,
2013-01-28 00:18:00,36.3,36.0,29.89,SSW,193,7.0,8.9,99,0.00,,,0.00,WUHU216WMR100,2013-01-28 06:18:00,
2013-01-28 00:23:00,36.3,36.0,29.89,SSE,157,4.7,8.9,99,0.00,,,0.00,WUHU216WMR100,2013-01-28 06:23:00,
2013-01-28 00:28:00,36.5,36.2,29.89,SSW,200,5.7,8.1,99,0.04,,,0.04,WUHU216WMR100,2013-01-28 06:28:00,
2013-01-28 00:33:00,36.7,36.4,29.89,SSW,202,9.2,9.2,99,0.04,,,0.04,WUHU216WMR100,2013-01-28 06:33:00,
2013-01-28 00:38:00,36.7,36.4,29.89,SSE,162,4.6,9.2,99,0.04,,,0.04,WUHU216WMR100,2013-01-28 06:38:00,
2013-01-28 00:43:00,36.9,36.6,29.89,SSE,157,8.9,9.2,99,0.04,,,0.04,WUHU216WMR100,2013-01-28 06:43:00,
2013-01-28 00:48:00,37.0,36.7,29.89,SSW,203,5.0,9.9,99,0.04,,,0.04,WUHU216WMR100,2013-01-28 06:48:00,
2013-01-28 00:53:00,37.2,36.9,29.89,NW,315,8.5,10.7,99,0.04,,,0.04,WUHU216WMR100,2013-01-28 06:53:00,
2013-01-28 00:58:00,37.0,36.7,29.89,SSW,202,4.8,10.7,99,0.04,,,0.04,WUHU216WMR100,2013-01-28 06:58:00,
2013-01-28 01:03:00,37.2,36.9,29.89,SSE,164,4.7,9.2,99,0.04,,,0.04,WUHU216WMR100,2013-01-28 07:03:00,
2013-01-28 01:08:00,37.4,37.1,29.89,East,90,5.9,6.3,99,0.04,,,0.04,WUHU216WMR100,2013-01-28 07:08:00,
2013-01-28 01:13:00,37.6,37.3,29.89,SSE,163,6.2,6.6,99,0.04,,,0.04,WUHU216WMR100,2013-01-28 07:13:00,
2013-01-28 01:18:00,37.8,37.5,29.89,WSW,247,8.9,8.9,99,0.04,,,0.04,WUHU216WMR100,2013-01-28 07:18:00,
2013-01-28 01:23:00,37.9,37.6,29.89,ESE,112,6.3,8.9,99,0.04,,,0.04,WUHU216WMR100,2013-01-28 07:23:00,
2013-01-28 01:28:00,38.1,37.8,29.89,SSW,202,6.3,8.9,99,0.00,,,0.04,WUHU216WMR100,2013-01-28 07:28:00,
2013-01-28 01:33:00,38.3,38.0,29.89,South,180,8.1,8.9,99,0.00,,,0.04,WUHU216WMR100,2013-01-28 07:33:00,
2013-01-28 01:38:00,38.5,38.2,29.89,WSW,247,6.6,8.9,99,0.00,,,0.04,WUHU216WMR100,2013-01-28 07:38:00,
2013-01-28 01:43:00,38.7,38.4,29.89,SW,225,9.9,9.9,99,0.00,,,0.04,WUHU216WMR100,2013-01-28 07:43:00,
2013-01-28 01:48:00,38.7,38.4,29.89,SSW,202,6.1,9.9,99,0.00,,,0.04,WUHU216WMR100,2013-01-28 07:48:00,
2013-01-28 01:53:00,38.8,38.5,29.89,South,180,8.9,9.9,99,0.00,,,0.04,WUHU216WMR100,2013-01-28 07:53:00,
2013-01-28 01:58:00,39.0,38.7,29.89,WSW,247,7.1,8.9,99,0.00,,,0.04,WUHU216WMR100,2013-01-28 07:58:00,
2013-01-28 02:03:00,39.2,38.9,29.89,WSW,247,7.1,7.1,99,0.00,,,0.04,WUHU216WMR100,2013-01-28 08:03:00,
2013-01-28 02:08:00,39.4,39.1,29.89,SW,233,5.0,7.1,99,0.00,,,0.04,WUHU216WMR100,2013-01-28 08:08:00,
2013-01-28 02:13:00,39.7,39.4,29.89,South,173,5.9,10.7,99,0.00,,,0.04,WUHU216WMR100,2013-01-28 08:13:00,
2013-01-28 02:18:00,40.3,40.0,29.89,SE,143,5.0,12.2,99,0.00,,,0.04,WUHU216WMR100,2013-01-28 08:18:00,
2013-01-28 02:23:00,40.8,40.5,29.89,South,173,7.0,12.2,99,0.00,,,0.04,WUHU216WMR100,2013-01-28 08:23:00,
2013-01-28 02:28:00,41.0,40.7,29.89,SSW,202,6.8,9.6,99,0.00,,,0.04,WUHU216WMR100,2013-01-28 08:28:00,
2013-01-28 02:33:00,41.2,40.9,29.86,SSW,202,6.6,9.6,99,0.00,,,0.04,WUHU216WMR100,2013-01-28 08:33:00,
2013-01-28 02:38:00,41.5,41.2,29.86,SSW,197,8.7,10.7,99,0.00,,,0.04,WUHU216WMR100,2013-01-28 08:38:00,
2013-01-28 02:43:00,41.5,41.2,29.86,WSW,247,4.8,10.7,99,0.00,,,0.04,WUHU216WMR100,2013-01-28 08:43:00,
2013-01-28 02:48:00,41.9,41.6,29.86,SSE,157,6.6,12.2,99,0.00,,,0.04,WUHU216WMR100,2013-01-28 08:48:00,
2013-01-28 02:55:00,42.1,41.8,29.86,South,180,9.2,12.2,99,0.00,,,0.04,WUHU216WMR100,2013-01-28 08:55:00,
2013-01-28 03:00:00,42.4,42.1,29.86,SSW,210,5.7,9.2,99,0.00,,,0.04,WUHU216WMR100,2013-01-28 09:00:00,
2013-01-28 03:05:00,42.8,42.5,29.86,SSE,163,5.9,9.6,99,0.00,,,0.04,WUHU216WMR100,2013-01-28 09:05:00,
2013-01-28 03:10:00,43.2,42.9,29.86,SSE,157,6.6,10.4,99,0.00,,,0.04,WUHU216WMR100,2013-01-28 09:10:00,
2013-01-28 03:15:00,43.3,43.0,29.86,WSW,252,5.2,10.4,99,0.00,,,0.04,WUHU216WMR100,2013-01-28 09:15:00,
2013-01-28 03:20:00,43.5,43.2,29.86,WSW,243,10.6,11.9,99,0.00,,,0.04,WUHU216WMR100,2013-01-28 09:20:00,
2013-01-28 03:25:00,43.7,43.4,29.86,SW,219,6.8,11.9,99,0.00,,,0.04,WUHU216WMR100,2013-01-28 09:25:00,
2013-01-28 03:30:00,43.9,43.6,29.86,SSW,202,9.6,10.7,99,0.00,,,0.04,WUHU216WMR100,2013-01-28 09:30:00,
2013-01-28 03:35:00,44.2,43.9,29.86,SW,223,11.1,14.0,99,0.00,,,0.04,WUHU216WMR100,2013-01-28 09:35:00,
2013-01-28 03:40:00,44.2,43.9,29.86,WSW,257,6.8,14.0,99,0.00,,,0.04,WUHU216WMR100,2013-01-28 09:40:00,
2013-01-28 03:45:00,44.2,43.9,29.86,SSW,202,12.5,12.5,99,0.00,,,0.04,WUHU216WMR100,2013-01-28 09:45:00,
2013-01-28 03:50:00,44.6,44.3,29.83,SSE,157,9.6,12.5,99,0.00,,,0.04,WUHU216WMR100,2013-01-28 09:50:00,
2013-01-28 03:55:00,44.6,44.3,29.83,WSW,247,6.3,12.5,99,0.00,,,0.04,WUHU216WMR100,2013-01-28 09:55:00,
2013-01-28 04:00:00,44.8,44.5,29.83,SW,228,7.0,9.9,99,0.00,,,0.04,WUHU216WMR100,2013-01-28 10:00:00,
2013-01-28 04:05:00,45.0,44.7,29.83,SSW,202,9.2,9.9,99,0.00,,,0.04,WUHU216WMR100,2013-01-28 10:05:00,
2013-01-28 04:10:00,45.0,44.7,29.83,SSW,202,6.3,9.6,99,0.00,,,0.04,WUHU216WMR100,2013-01-28 10:10:00,
2013-01-28 04:15:00,45.0,44.7,29.83,SSW,202,9.2,11.1,99,0.00,,,0.04,WUHU216WMR100,2013-01-28 10:15:00,
2013-01-28 04:20:00,45.1,44.8,29.83,SW,225,12.9,13.4,99,0.00,,,0.04,WUHU216WMR100,2013-01-28 10:20:00,
2013-01-28 04:25:00,45.1,44.8,29.83,SW,231,6.0,13.4,99,0.00,,,0.04,WUHU216WMR100,2013-01-28 10:25:00,
2013-01-28 04:30:00,45.3,45.0,29.83,SSE,160,8.8,13.4,99,0.00,,,0.04,WUHU216WMR100,2013-01-28 10:30:00,
2013-01-28 04:35:00,45.5,45.2,29.83,SSW,208,8.1,13.4,99,0.00,,,0.04,WUHU216WMR100,2013-01-28 10:35:00,
2013-01-28 04:40:00,45.5,45.2,29.83,SW,225,10.4,10.4,99,0.00,,,0.04,WUHU216WMR100,2013-01-28 10:40:00,
2013-01-28 04:45:00,45.9,45.6,29.83,SSW,201,7.4,10.4,99,0.00,,,0.04,WUHU216WMR100,2013-01-28 10:45:00,
2013-01-28 04:50:00,46.0,45.7,29.83,SW,229,11.4,13.4,99,0.00,,,0.04,WUHU216WMR100,2013-01-28 10:50:00,
2013-01-28 04:55:00,46.0,45.7,29.83,SW,225,6.6,13.4,99,0.00,,,0.04,WUHU216WMR100,2013-01-28 10:55:00,
2013-01-28 05:00:00,45.9,45.6,29.83,SSW,202,6.3,13.4,99,0.00,,,0.04,WUHU216WMR100,2013-01-28 11:00:00,
2013-01-28 05:05:00,46.2,45.9,29.83,SW,231,9.3,14.7,99,0.00,,,0.04,WUHU216WMR100,2013-01-28 11:05:00,
2013-01-28 05:10:00,46.2,45.9,29.83,SSW,202,8.9,14.7,99,0.00,,,0.04,WUHU216WMR100,2013-01-28 11:10:00,
2013-01-28 05:15:00,46.4,46.1,29.83,SSW,202,8.9,10.4,99,0.04,,,0.08,WUHU216WMR100,2013-01-28 11:15:00,
2013-01-28 05:20:00,46.4,46.1,29.81,SSW,209,9.5,13.4,99,0.04,,,0.08,WUHU216WMR100,2013-01-28 11:20:00,
2013-01-28 05:25:00,46.4,46.1,29.81,SSW,202,7.1,13.4,99,0.04,,,0.08,WUHU216WMR100,2013-01-28 11:25:00,
2013-01-28 05:30:00,46.6,46.3,29.81,South,180,9.6,10.4,99,0.04,,,0.08,WUHU216WMR100,2013-01-28 11:30:00,
2013-01-28 05:35:00,46.8,46.5,29.81,SSW,202,8.9,12.9,99,0.09,,,0.13,WUHU216WMR100,2013-01-28 11:35:00,
2013-01-28 05:40:00,46.8,46.5,29.81,WSW,247,9.6,12.9,99,0.09,,,0.13,WUHU216WMR100,2013-01-28 11:40:00,
2013-01-28 05:45:00,46.8,46.5,29.81,WSW,247,5.1,11.9,99,0.09,,,0.13,WUHU216WMR100,2013-01-28 11:45:00,
2013-01-28 05:50:00,46.9,46.6,29.83,South,189,5.5,9.9,99,0.09,,,0.13,WUHU216WMR100,2013-01-28 11:50:00,
2013-01-28 05:55:00,47.1,46.8,29.83,West,270,10.4,10.4,99,0.09,,,0.13,WUHU216WMR100,2013-01-28 11:55:00,
2013-01-28 06:00:00,47.3,47.0,29.83,SW,227,7.2,10.4,99,0.09,,,0.13,WUHU216WMR100,2013-01-28 12:00:00,
2013-01-28 06:05:00,47.5,47.2,29.83,SW,225,10.7,10.7,99,0.09,,,0.13,WUHU216WMR100,2013-01-28 12:05:00,
2013-01-28 06:10:00,47.7,47.4,29.83,SSW,204,11.3,15.8,99,0.09,,,0.13,WUHU216WMR100,2013-01-28 12:10:00,
2013-01-28 06:15:00,47.7,47.4,29.83,WSW,247,9.2,17.7,99,0.05,,,0.13,WUHU216WMR100,2013-01-28 12:15:00,
2013-01-28 06:20:00,47.8,47.5,29.81,WSW,247,12.9,17.7,99,0.05,,,0.13,WUHU216WMR100,2013-01-28 12:20:00,
2013-01-28 06:25:00,47.8,47.5,29.81,SSW,202,7.6,15.8,99,0.05,,,0.13,WUHU216WMR100,2013-01-28 12:25:00,
2013-01-28 06:30:00,47.8,47.5,29.81,South,188,6.1,15.8,99,0.05,,,0.13,WUHU216WMR100,2013-01-28 12:30:00,
2013-01-28 06:35:00,47.8,47.5,29.81,NW,315,12.2,12.2,99,0.00,,,0.13,WUHU216WMR100,2013-01-28 12:35:00,
2013-01-28 06:40:00,48.0,47.7,29.81,SSE,160,6.7,12.2,99,0.00,,,0.13,WUHU216WMR100,2013-01-28 12:40:00,
2013-01-28 06:45:00,48.0,47.7,29.81,South,186,13.6,21.1,99,0.00,,,0.13,WUHU216WMR100,2013-01-28 12:45:00,
2013-01-28 06:50:00,48.0,47.7,29.81,South,186,11.0,21.1,99,0.00,,,0.13,WUHU216WMR100,2013-01-28 12:50:00,
2013-01-28 06:55:00,48.2,47.9,29.81,NW,315,11.9,13.4,99,0.00,,,0.13,WUHU216WMR100,2013-01-28 12:55:00,
2013-01-28 07:00:00,48.2,47.9,29.81,SW,225,6.6,17.7,99,0.00,,,0.13,WUHU216WMR100,2013-01-28 13:00:00,
2013-01-28 07:05:00,48.4,48.1,29.83,SSW,202,17.3,17.7,99,0.00,,,0.13,WUHU216WMR100,2013-01-28 13:05:00,
2013-01-28 07:10:00,48.4,48.1,29.83,WSW,247,12.9,17.3,99,0.00,,,0.13,WUHU216WMR100,2013-01-28 13:10:00,
2013-01-28 07:15:00,48.4,48.1,29.83,SW,231,9.0,17.3,99,0.00,,,0.13,WUHU216WMR100,2013-01-28 13:15:00,
2013-01-28 07:20:00,48.4,48.1,29.83,West,278,12.9,16.2,99,0.00,,,0.13,WUHU216WMR100,2013-01-28 13:20:00,
2013-01-28 07:25:00,48.4,48.1,29.83,SSW,202,10.7,14.0,99,0.00,,,0.13,WUHU216WMR100,2013-01-28 13:25:00,
2013-01-28 07:30:00,48.4,48.1,29.83,SW,225,16.7,16.7,99,0.00,,,0.13,WUHU216WMR100,2013-01-28 13:30:00,
2013-01-28 07:35:00,48.4,48.1,29.83,SSW,202,5.1,16.7,99,0.00,,,0.13,WUHU216WMR100,2013-01-28 13:35:00,
2013-01-28 07:40:00,48.4,48.1,29.83,SW,225,11.9,16.7,99,0.00,,,0.13,WUHU216WMR100,2013-01-28 13:40:00,
2013-01-28 07:45:00,48.4,48.1,29.83,SSW,202,8.2,11.9,99,0.00,,,0.13,WUHU216WMR100,2013-01-28 13:45:00,
2013-01-28 07:50:00,48.4,48.1,29.83,WSW,247,14.4,14.4,99,0.00,,,0.13,WUHU216WMR100,2013-01-28 13:50:00,
2013-01-28 07:55:00,48.4,48.1,29.83,West,273,6.1,14.4,99,0.00,,,0.13,WUHU216WMR100,2013-01-28 13:55:00,
2013-01-28 08:00:00,48.4,48.1,29.83,WSW,247,10.7,14.4,99,0.00,,,0.13,WUHU216WMR100,2013-01-28 14:00:00,
2013-01-28 08:05:00,48.4,48.1,29.83,SSW,202,5.6,10.7,99,0.00,,,0.13,WUHU216WMR100,2013-01-28 14:05:00,
2013-01-28 08:10:00,48.4,48.1,29.83,WSW,246,8.5,10.7,99,0.00,,,0.13,WUHU216WMR100,2013-01-28 14:10:00,
2013-01-28 08:15:00,48.6,48.3,29.83,SSW,202,4.8,14.0,99,0.00,,,0.13,WUHU216WMR100,2013-01-28 14:15:00,
2013-01-28 08:20:00,48.7,48.4,29.86,WSW,247,12.5,14.0,99,0.00,,,0.13,WUHU216WMR100,2013-01-28 14:20:00,
2013-01-28 08:25:00,48.7,48.4,29.86,SW,226,5.5,12.5,99,0.00,,,0.13,WUHU216WMR100,2013-01-28 14:25:00,
2013-01-28 08:30:00,48.7,48.4,29.86,SW,225,4.5,12.5,99,0.00,,,0.13,WUHU216WMR100,2013-01-28 14:30:00,
2013-01-28 08:35:00,48.9,48.6,29.86,WSW,256,6.3,9.9,99,0.00,,,0.13,WUHU216WMR100,2013-01-28 14:35:00,
2013-01-28 08:40:00,48.9,48.6,29.86,SSW,202,10.7,10.7,99,0.00,,,0.13,WUHU216WMR100,2013-01-28 14:40:00,
2013-01-28 08:45:00,49.1,48.8,29.86,WSW,247,5.1,10.7,99,0.00,,,0.13,WUHU216WMR100,2013-01-28 14:45:00,
2013-01-28 08:50:00,49.3,49.0,29.86,SW,225,8.9,10.7,99,0.00,,,0.13,WUHU216WMR100,2013-01-28 14:50:00,
2013-01-28 08:55:00,49.3,49.0,29.86,West,259,4.7,8.9,99,0.00,,,0.13,WUHU216WMR100,2013-01-28 14:55:00,
2013-01-28 09:00:00,49.3,49.0,29.86,SW,217,5.3,8.9,99,0.00,,,0.13,WUHU216WMR100,2013-01-28 15:00:00,
2013-01-28 09:05:00,49.3,49.0,29.86,WNW,292,10.7,10.7,99,0.00,,,0.13,WUHU216WMR100,2013-01-28 15:05:00,
2013-01-28 09:10:00,49.3,49.0,29.86,West,265,6.2,10.7,99,0.00,,,0.13,WUHU216WMR100,2013-01-28 15:10:00,
2013-01-28 09:15:00,49.5,49.2,29.86,WNW,292,8.1,10.7,99,0.00,,,0.13,WUHU216WMR100,2013-01-28 15:15:00,
2013-01-28 09:20:00,49.5,49.2,29.86,WSW,247,8.1,9.9,99,0.00,,,0.13,WUHU216WMR100,2013-01-28 15:20:00,
2013-01-28 09:25:00,49.5,49.2,29.86,West,279,4.9,8.1,99,0.00,,,0.13,WUHU216WMR100,2013-01-28 15:25:00,
2013-01-28 09:30:00,49.5,49.2,29.86,West,270,10.7,10.7,99,0.00,,,0.13,WUHU216WMR100,2013-01-28 15:30:00,
2013-01-28 09:35:00,49.6,49.3,29.86,WSW,242,10.7,14.4,99,0.00,,,0.13,WUHU216WMR100,2013-01-28 15:35:00,
2013-01-28 09:40:00,49.6,49.3,29.86,SW,223,6.4,14.4,99,0.00,,,0.13,WUHU216WMR100,2013-01-28 15:40:00,
2013-01-28 09:45:00,49.5,49.2,29.86,West,274,3.2,8.9,99,0.00,,,0.13,WUHU216WMR100,2013-01-28 15:45:00,
2013-01-28 09:50:00,49.6,49.3,29.89,SW,225,10.4,10.4,99,0.00,,,0.13,WUHU216WMR100,2013-01-28 15:50:00,
2013-01-28 09:55:00,49.6,49.3,29.89,SSW,202,6.3,10.4,99,0.00,,,0.13,WUHU216WMR100,2013-01-28 15:55:00,
2013-01-28 10:00:00,49.6,49.3,29.89,SSE,157,6.3,10.4,99,0.00,,,0.13,WUHU216WMR100,2013-01-28 16:00:00,
2013-01-28 10:05:00,49.6,49.3,29.89,SW,236,6.0,10.7,99,0.00,,,0.13,WUHU216WMR100,2013-01-28 16:05:00,
2013-01-28 10:10:00,49.6,49.3,29.89,SW,225,9.3,14.0,99,0.00,,,0.13,WUHU216WMR100,2013-01-28 16:10:00,
2013-01-28 10:15:00,49.6,49.3,29.89,SW,234,6.0,14.0,99,0.00,,,0.13,WUHU216WMR100,2013-01-28 16:15:00,
2013-01-28 10:20:00,49.6,49.3,29.89,West,273,5.0,10.7,99,0.00,,,0.13,WUHU216WMR100,2013-01-28 16:20:00,
2013-01-28 10:25:00,49.6,49.3,29.89,West,277,7.6,9.6,99,0.00,,,0.13,WUHU216WMR100,2013-01-28 16:25:00,
2013-01-28 10:30:00,49.6,49.3,29.89,West,262,6.0,9.2,99,0.00,,,0.13,WUHU216WMR100,2013-01-28 16:30:00,
2013-01-28 10:35:00,49.6,49.3,29.89,West,260,6.9,9.2,99,0.00,,,0.13,WUHU216WMR100,2013-01-28 16:35:00,
2013-01-28 10:40:00,49.6,49.3,29.89,West,270,4.8,8.1,99,0.00,,,0.13,WUHU216WMR100,2013-01-28 16:40:00,
2013-01-28 10:45:00,49.6,49.3,29.89,WSW,251,5.0,11.9,99,0.00,,,0.13,WUHU216WMR100,2013-01-28 16:45:00,
2013-01-28 10:50:00,49.6,49.3,29.89,WSW,247,9.6,11.9,99,0.00,,,0.13,WUHU216WMR100,2013-01-28 16:50:00,
2013-01-28 10:55:00,49.8,49.5,29.89,WSW,247,7.1,9.6,99,0.00,,,0.13,WUHU216WMR100,2013-01-28 16:55:00,
2013-01-28 11:00:00,49.8,49.5,29.89,West,271,6.3,10.7,99,0.00,,,0.13,WUHU216WMR100,2013-01-28 17:00:00,
2013-01-28 11:05:00,49.8,49.5,29.89,West,260,7.3,10.7,99,0.00,,,0.13,WUHU216WMR100,2013-01-28 17:05:00,
2013-01-28 11:10:00,49.8,49.5,29.89,West,271,6.5,8.1,99,0.00,,,0.13,WUHU216WMR100,2013-01-28 17:10:00,
2013-01-28 11:15:00,50.0,49.7,29.89,NW,315,4.8,7.1,99,0.00,,,0.13,WUHU216WMR100,2013-01-28 17:15:00,
2013-01-28 11:20:00,50.2,49.9,29.89,West,274,6.5,10.7,99,0.00,,,0.13,WUHU216WMR100,2013-01-28 17:20:00,
2013-01-28 11:25:00,50.2,49.9,29.89,WNW,292,5.6,12.2,99,0.00,,,0.13,WUHU216WMR100,2013-01-28 17:25:00,
2013-01-28 11:30:00,50.2,49.9,29.89,West,270,4.1,12.2,99,0.00,,,0.13,WUHU216WMR100,2013-01-28 17:30:00,
2013-01-28 11:35:00,50.2,49.9,29.89,SW,225,9.2,10.4,99,0.00,,,0.13,WUHU216WMR100,2013-01-28 17:35:00,
2013-01-28 11:40:00,50.2,49.9,29.89,SW,219,5.2,10.4,99,0.00,,,0.13,WUHU216WMR100,2013-01-28 17:40:00,
2013-01-28 11:45:00,50.4,50.1,29.89,West,269,3.1,9.2,99,0.00,,,0.13,WUHU216WMR100,2013-01-28 17:45:00,
2013-01-28 11:50:00,50.2,49.9,29.86,SSW,202,5.9,5.9,99,0.00,,,0.13,WUHU216WMR100,2013-01-28 17:50:00,
2013-01-28 11:55:00,50.2,49.9,29.86,West,270,3.3,5.9,99,0.00,,,0.13,WUHU216WMR100,2013-01-28 17:55:00,
2013-01-28 12:00:00,50.2,49.9,29.86,West,274,3.2,4.5,99,0.00,,,0.13,WUHU216WMR100,2013-01-28 18:00:00,
2013-01-28 12:05:00,50.2,49.9,29.89,NW,315,7.4,7.4,99,0.00,,,0.13,WUHU216WMR100,2013-01-28 18:05:00,
2013-01-28 12:10:00,50.2,49.9,29.89,West,269,3.9,7.4,99,0.00,,,0.13,WUHU216WMR100,2013-01-28 18:10:00,
2013-01-28 12:15:00,50.2,49.9,29.89,WNW,292,5.1,6.3,99,0.00,,,0.13,WUHU216WMR100,2013-01-28 18:15:00,
2013-01-28 12:20:00,50.4,50.1,29.89,WNW,292,5.1,5.1,99,0.00,,,0.13,WUHU216WMR100,2013-01-28 18:20:00,
2013-01-28 12:25:00,50.4,50.1,29.89,WSW,247,1.9,5.9,99,0.00,,,0.13,WUHU216WMR100,2013-01-28 18:25:00,
2013-01-28 12:30:00,50.5,50.2,29.89,SW,223,3.8,6.6,99,0.00,,,0.13,WUHU216WMR100,2013-01-28 18:30:00,
2013-01-28 12:35:00,51.1,50.8,29.86,WSW,247,4.6,6.6,99,0.00,,,0.13,WUHU216WMR100,2013-01-28 18:35:00,
2013-01-28 12:40:00,51.1,50.8,29.86,WNW,292,1.8,4.8,99,0.00,,,0.13,WUHU216WMR100,2013-01-28 18:40:00,
2013-01-28 12:45:00,50.9,50.6,29.86,WSW,247,2.6,3.6,99,0.00,,,0.13,WUHU216WMR100,2013-01-28 18:45:00,
2013-01-28 12:50:00,50.9,50.6,29.89,West,263,5.4,5.6,99,0.00,,,0.13,WUHU216WMR100,2013-01-28 18:50:00,
2013-01-28 12:55:00,50.7,50.4,29.89,WNW,292,2.6,5.6,99,0.00,,,0.13,WUHU216WMR100,2013-01-28 18:55:00,
2013-01-28 13:00:00,50.5,50.2,29.89,NW,307,4.4,5.1,99,0.00,,,0.13,WUHU216WMR100,2013-01-28 19:00:00,
2013-01-28 13:05:00,50.5,50.2,29.89,West,263,4.6,7.1,99,0.00,,,0.13,WUHU216WMR100,2013-01-28 19:05:00,
2013-01-28 13:10:00,50.7,50.4,29.89,WNW,292,3.6,7.1,99,0.00,,,0.13,WUHU216WMR100,2013-01-28 19:10:00,
2013-01-28 13:15:00,50.9,50.6,29.89,WSW,247,2.1,5.1,99,0.00,,,0.13,WUHU216WMR100,2013-01-28 19:15:00,
2013-01-28 13:20:00,50.9,50.6,29.89,West,280,4.6,5.1,99,0.00,,,0.13,WUHU216WMR100,2013-01-28 19:20:00,
2013-01-28 13:25:00,50.9,50.6,29.89,West,276,2.6,5.1,99,0.00,,,0.13,WUHU216WMR100,2013-01-28 19:25:00,
2013-01-28 13:31:00,50.9,50.6,29.89,WSW,250,2.9,4.1,99,0.00,,,0.13,WUHU216WMR100,2013-01-28 19:31:00,
2013-01-28 13:36:00,50.9,50.6,29.86,West,270,0.0,3.6,99,0.00,,,0.13,WUHU216WMR100,2013-01-28 19:36:00,
2013-01-28 13:41:00,50.9,50.6,29.86,WSW,247,4.1,4.1,99,0.00,,,0.13,WUHU216WMR100,2013-01-28 19:41:00,
2013-01-28 13:46:00,50.9,50.6,29.86,WSW,247,4.1,4.1,99,0.00,,,0.13,WUHU216WMR100,2013-01-28 19:46:00,
2013-01-28 13:50:00,50.9,50.6,29.89,WNW,292,2.6,4.1,99,0.00,,,0.13,WUHU216WMR100,2013-01-28 19:50:00,
2013-01-28 13:55:00,50.9,50.6,29.89,West,270,2.7,3.3,99,0.00,,,0.13,WUHU216WMR100,2013-01-28 19:55:00,
2013-01-28 14:00:00,50.7,50.4,29.89,WSW,247,2.6,3.3,99,0.00,,,0.13,WUHU216WMR100,2013-01-28 20:00:00,
2013-01-28 14:05:00,50.7,50.4,29.89,West,270,5.6,5.6,99,0.00,,,0.13,WUHU216WMR100,2013-01-28 20:05:00,
2013-01-28 14:10:00,50.5,49.9,29.89,WSW,247,4.1,5.6,98,0.00,,,0.13,WUHU216WMR100,2013-01-28 20:10:00,
2013-01-28 14:15:00,50.5,49.9,29.89,NW,315,1.8,5.6,98,0.00,,,0.13,WUHU216WMR100,2013-01-28 20:15:00,
2013-01-28 14:20:00,50.5,49.7,29.89,West,270,2.6,4.1,97,0.00,,,0.13,WUHU216WMR100,2013-01-28 20:20:00,
2013-01-28 14:25:00,50.5,49.7,29.89,WNW,292,2.1,4.1,97,0.00,,,0.13,WUHU216WMR100,2013-01-28 20:25:00,
2013-01-28 14:30:00,50.5,49.7,29.89,WNW,292,0.0,3.3,97,0.00,,,0.13,WUHU216WMR100,2013-01-28 20:30:00,
2013-01-28 14:36:00,50.4,49.6,29.89,WNW,292,0.0,2.6,97,0.00,,,0.13,WUHU216WMR100,2013-01-28 20:36:00,
2013-01-28 14:41:00,50.4,49.6,29.89,WNW,292,0.0,0.0,97,0.00,,,0.13,WUHU216WMR100,2013-01-28 20:41:00,
2013-01-28 14:46:00,50.4,49.6,29.89,WNW,292,4.1,4.1,97,0.00,,,0.13,WUHU216WMR100,2013-01-28 20:46:00,
2013-01-28 14:51:00,50.2,49.1,29.89,WNW,292,3.5,4.5,96,0.00,,,0.13,WUHU216WMR100,2013-01-28 20:51:00,
2013-01-28 14:56:00,50.2,49.1,29.89,WNW,292,0.0,4.5,96,0.00,,,0.13,WUHU216WMR100,2013-01-28 20:56:00,
2013-01-28 15:01:00,50.0,48.6,29.89,West,270,2.1,2.6,95,0.00,,,0.13,WUHU216WMR100,2013-01-28 21:01:00,
2013-01-28 15:06:00,50.0,48.6,29.89,WNW,292,0.0,2.1,95,0.00,,,0.13,WUHU216WMR100,2013-01-28 21:06:00,
2013-01-28 15:11:00,49.8,48.7,29.89,WNW,292,0.0,2.1,96,0.00,,,0.13,WUHU216WMR100,2013-01-28 21:11:00,
2013-01-28 15:16:00,49.6,48.2,29.89,WNW,292,0.0,2.1,95,0.00,,,0.13,WUHU216WMR100,2013-01-28 21:16:00,
2013-01-28 15:21:00,49.5,48.1,29.89,WNW,292,0.0,0.0,95,0.00,,,0.13,WUHU216WMR100,2013-01-28 21:21:00,
2013-01-28 15:26:00,49.3,47.9,29.89,NW,315,0.0,0.0,95,0.00,,,0.13,WUHU216WMR100,2013-01-28 21:26:00,
2013-01-28 15:31:00,49.1,47.7,29.89,NW,315,0.0,0.0,95,0.00,,,0.13,WUHU216WMR100,2013-01-28 21:31:00,
2013-01-28 15:36:00,48.9,47.8,29.89,NW,315,0.0,0.0,96,0.00,,,0.13,WUHU216WMR100,2013-01-28 21:36:00,
2013-01-28 15:41:00,48.9,47.8,29.89,NW,315,0.0,0.0,96,0.00,,,0.13,WUHU216WMR100,2013-01-28 21:41:00,
2013-01-28 15:46:00,48.7,47.6,29.89,NW,315,0.0,0.0,96,0.00,,,0.13,WUHU216WMR100,2013-01-28 21:46:00,
2013-01-28 15:51:00,48.6,47.5,29.89,NW,315,0.0,0.0,96,0.00,,,0.13,WUHU216WMR100,2013-01-28 21:51:00,
2013-01-28 15:56:00,48.6,47.8,29.89,ESE,112,3.3,3.3,97,0.00,,,0.13,WUHU216WMR100,2013-01-28 21:56:00,
2013-01-28 16:01:00,48.2,47.1,29.89,East,90,3.6,4.5,96,0.00,,,0.13,WUHU216WMR100,2013-01-28 22:01:00,
2013-01-28 16:06:00,47.7,46.9,29.89,East,90,1.8,4.5,97,0.00,,,0.13,WUHU216WMR100,2013-01-28 22:06:00,
2013-01-28 16:11:00,47.3,46.5,29.89,ESE,112,3.3,4.1,97,0.00,,,0.13,WUHU216WMR100,2013-01-28 22:11:00,
2013-01-28 16:16:00,46.9,46.1,29.89,SSE,157,3.3,3.3,97,0.00,,,0.13,WUHU216WMR100,2013-01-28 22:16:00,
2013-01-28 16:21:00,46.8,46.0,29.89,ESE,112,5.6,5.6,97,0.00,,,0.13,WUHU216WMR100,2013-01-28 22:21:00,
2013-01-28 16:26:00,46.6,45.8,29.89,NNE,12,2.0,5.6,97,0.00,,,0.13,WUHU216WMR100,2013-01-28 22:26:00,
2013-01-28 16:31:00,46.0,45.2,29.89,NNW,337,3.7,5.6,97,0.00,,,0.13,WUHU216WMR100,2013-01-28 22:31:00,
2013-01-28 16:36:00,45.3,44.5,29.92,NE,50,2.6,7.1,97,0.00,,,0.13,WUHU216WMR100,2013-01-28 22:36:00,
2013-01-28 16:41:00,44.8,44.0,29.92,NE,45,4.1,7.1,97,0.00,,,0.13,WUHU216WMR100,2013-01-28 22:41:00,
2013-01-28 16:46:00,44.4,43.8,29.92,North,0,5.1,5.1,98,0.00,,,0.13,WUHU216WMR100,2013-01-28 22:46:00,
2013-01-28 16:51:00,44.1,43.5,29.92,ENE,67,4.5,5.1,98,0.00,,,0.13,WUHU216WMR100,2013-01-28 22:51:00,
2013-01-28 16:56:00,43.9,43.3,29.92,ENE,67,0.0,5.1,98,0.00,,,0.13,WUHU216WMR100,2013-01-28 22:56:00,
2013-01-28 17:01:00,43.7,43.1,29.92,ENE,67,3.7,4.5,98,0.00,,,0.13,WUHU216WMR100,2013-01-28 23:01:00,
2013-01-28 17:06:00,43.5,43.2,29.92,ENE,67,4.5,4.5,99,0.00,,,0.13,WUHU216WMR100,2013-01-28 23:06:00,
2013-01-28 17:11:00,43.3,43.0,29.92,ESE,109,4.2,5.1,99,0.00,,,0.13,WUHU216WMR100,2013-01-28 23:11:00,
2013-01-28 17:16:00,43.2,42.9,29.92,NE,40,3.4,5.1,99,0.00,,,0.13,WUHU216WMR100,2013-01-28 23:16:00,
2013-01-28 17:21:00,43.0,42.7,29.92,East,90,4.8,5.1,99,0.00,,,0.13,WUHU216WMR100,2013-01-28 23:21:00,
2013-01-28 17:26:00,42.8,42.5,29.92,ENE,78,4.9,5.1,99,0.00,,,0.13,WUHU216WMR100,2013-01-28 23:26:00,
2013-01-28 17:31:00,42.8,42.5,29.92,ENE,73,5.8,7.1,99,0.00,,,0.13,WUHU216WMR100,2013-01-28 23:31:00,
2013-01-28 17:36:00,42.6,42.3,29.92,East,80,4.0,7.1,99,0.00,,,0.13,WUHU216WMR100,2013-01-28 23:36:00,
2013-01-28 17:41:00,42.4,42.1,29.92,ENE,67,5.6,5.6,99,0.00,,,0.13,WUHU216WMR100,2013-01-28 23:41:00,
2013-01-28 17:46:00,42.4,42.1,29.92,ESE,112,8.1,8.1,99,0.00,,,0.13,WUHU216WMR100,2013-01-28 23:46:00,
2013-01-28 17:51:00,42.4,42.1,29.92,East,85,3.8,8.1,99,0.00,,,0.13,WUHU216WMR100,2013-01-28 23:51:00,
2013-01-28 17:56:00,42.3,42.0,29.92,ENE,72,5.3,6.6,99,0.00,,,0.13,WUHU216WMR100,2013-01-28 23:56:00,
2013-01-28 18:01:00,42.3,42.0,29.92,East,90,4.8,6.6,99,0.00,,,0.13,WUHU216WMR100,2013-01-29 00:01:00,
2013-01-28 18:06:00,42.1,41.8,29.92,East,93,3.6,5.1,99,0.00,,,0.13,WUHU216WMR100,2013-01-29 00:06:00,
2013-01-28 18:11:00,42.1,41.8,29.92,NE,45,3.3,4.5,99,0.00,,,0.13,WUHU216WMR100,2013-01-29 00:11:00,
2013-01-28 18:16:00,42.1,41.8,29.92,ENE,67,4.5,6.6,99,0.00,,,0.13,WUHU216WMR100,2013-01-29 00:16:00,
2013-01-28 18:21:00,41.9,41.6,29.92,ENE,67,3.1,6.6,99,0.00,,,0.13,WUHU216WMR100,2013-01-29 00:21:00,
2013-01-28 18:26:00,41.9,41.6,29.92,ENE,67,3.3,4.8,99,0.00,,,0.13,WUHU216WMR100,2013-01-29 00:26:00,
2013-01-28 18:31:00,41.9,41.6,29.92,ENE,67,6.3,7.8,99,0.00,,,0.13,WUHU216WMR100,2013-01-29 00:31:00,
2013-01-28 18:36:00,41.9,41.6,29.92,East,90,6.6,7.8,99,0.00,,,0.13,WUHU216WMR100,2013-01-29 00:36:00,
2013-01-28 18:41:00,41.9,41.6,29.92,ENE,71,3.7,7.8,99,0.00,,,0.13,WUHU216WMR100,2013-01-29 00:41:00,
2013-01-28 18:46:00,41.7,41.4,29.92,ENE,67,4.8,7.8,99,0.00,,,0.13,WUHU216WMR100,2013-01-29 00:46:00,
2013-01-28 18:51:00,41.7,41.4,29.92,East,90,2.6,4.8,99,0.00,,,0.13,WUHU216WMR100,2013-01-29 00:51:00,
2013-01-28 18:56:00,41.7,41.4,29.92,ESE,112,4.8,4.8,99,0.00,,,0.13,WUHU216WMR100,2013-01-29 00:56:00,
2013-01-28 19:01:00,41.7,41.4,29.92,ENE,75,3.3,5.9,99,0.00,,,0.13,WUHU216WMR100,2013-01-29 01:01:00,
2013-01-28 19:06:00,41.7,41.4,29.92,ESE,112,5.1,5.9,99,0.00,,,0.13,WUHU216WMR100,2013-01-29 01:06:00,
2013-01-28 19:11:00,41.7,41.4,29.92,East,90,3.4,5.9,99,0.00,,,0.13,WUHU216WMR100,2013-01-29 01:11:00,
2013-01-28 19:16:00,41.7,41.4,29.92,ENE,73,2.5,5.9,99,0.00,,,0.13,WUHU216WMR100,2013-01-29 01:16:00,
2013-01-28 19:21:00,41.7,41.4,29.92,ENE,78,4.3,5.1,99,0.00,,,0.13,WUHU216WMR100,2013-01-29 01:21:00,
2013-01-28 19:26:00,41.5,41.2,29.92,SE,136,2.1,4.8,99,0.00,,,0.13,WUHU216WMR100,2013-01-29 01:26:00,
2013-01-28 19:31:00,41.5,41.2,29.92,ESE,112,4.1,4.1,99,0.00,,,0.13,WUHU216WMR100,2013-01-29 01:31:00,
2013-01-28 19:36:00,41.5,41.2,29.92,East,95,5.0,5.6,99,0.00,,,0.13,WUHU216WMR100,2013-01-29 01:36:00,
2013-01-28 19:41:00,41.5,41.2,29.92,ESE,112,5.1,7.8,99,0.00,,,0.13,WUHU216WMR100,2013-01-29 01:41:00,
2013-01-28 19:46:00,41.5,41.2,29.92,East,90,4.1,7.8,99,0.00,,,0.13,WUHU216WMR100,2013-01-29 01:46:00,
2013-01-28 19:51:00,41.5,41.2,29.92,SE,135,3.6,5.1,99,0.00,,,0.13,WUHU216WMR100,2013-01-29 01:51:00,
2013-01-28 19:56:00,41.7,41.4,29.92,East,90,7.1,7.1,99,0.00,,,0.13,WUHU216WMR100,2013-01-29 01:56:00,
2013-01-28 20:01:00,41.7,41.4,29.92,ESE,112,6.3,8.1,99,0.00,,,0.13,WUHU216WMR100,2013-01-29 02:01:00,
2013-01-28 20:06:00,41.5,41.2,29.92,SE,135,7.8,8.1,99,0.00,,,0.13,WUHU216WMR100,2013-01-29 02:06:00,
2013-01-28 20:11:00,41.5,41.2,29.92,SE,124,6.1,7.8,99,0.00,,,0.13,WUHU216WMR100,2013-01-29 02:11:00,
2013-01-28 20:16:00,41.5,41.2,29.92,SE,145,5.0,6.3,99,0.00,,,0.13,WUHU216WMR100,2013-01-29 02:16:00,
2013-01-28 20:21:00,41.4,41.1,29.89,ESE,112,5.6,6.3,99,0.00,,,0.13,WUHU216WMR100,2013-01-29 02:21:00,
2013-01-28 20:26:00,41.2,40.9,29.89,SSE,157,6.6,6.6,99,0.00,,,0.13,WUHU216WMR100,2013-01-29 02:26:00,
2013-01-28 20:31:00,41.2,40.9,29.89,East,90,5.6,6.6,99,0.00,,,0.13,WUHU216WMR100,2013-01-29 02:31:00,
2013-01-28 20:36:00,41.2,40.9,29.92,ESE,112,5.9,9.6,99,0.00,,,0.13,WUHU216WMR100,2013-01-29 02:36:00,
2013-01-28 20:41:00,41.2,40.9,29.92,ESE,112,6.3,9.6,99,0.00,,,0.13,WUHU216WMR100,2013-01-29 02:41:00,
2013-01-28 20:46:00,41.2,40.9,29.92,SE,135,7.1,7.1,99,0.00,,,0.13,WUHU216WMR100,2013-01-29 02:46:00,
2013-01-28 20:51:00,41.2,40.9,29.89,ESE,112,7.8,7.8,99,0.00,,,0.13,WUHU216WMR100,2013-01-29 02:51:00,
2013-01-28 20:56:00,41.2,40.9,29.89,ESE,112,6.3,7.8,99,0.00,,,0.13,WUHU216WMR100,2013-01-29 02:56:00,
2013-01-28 21:01:00,41.2,40.9,29.89,SE,130,5.5,7.8,99,0.00,,,0.13,WUHU216WMR100,2013-01-29 03:01:00,
2013-01-28 21:06:00,41.0,40.7,29.89,ESE,112,4.1,6.3,99,0.00,,,0.13,WUHU216WMR100,2013-01-29 03:06:00,
2013-01-28 21:11:00,41.0,40.7,29.89,ESE,112,3.6,6.3,99,0.00,,,0.13,WUHU216WMR100,2013-01-29 03:11:00,
2013-01-28 21:17:00,41.0,40.7,29.89,ESE,112,4.5,4.5,99,0.00,,,0.13,WUHU216WMR100,2013-01-29 03:17:00,
2013-01-28 21:22:00,41.0,40.7,29.89,ESE,112,4.8,4.8,99,0.00,,,0.13,WUHU216WMR100,2013-01-29 03:22:00,
2013-01-28 21:27:00,40.8,40.5,29.89,ESE,112,3.8,4.8,99,0.00,,,0.13,WUHU216WMR100,2013-01-29 03:27:00,
2013-01-28 21:32:00,40.8,40.5,29.89,SSE,157,5.1,5.1,99,0.00,,,0.13,WUHU216WMR100,2013-01-29 03:32:00,
2013-01-28 21:37:00,41.0,40.7,29.89,SE,146,4.3,5.1,99,0.00,,,0.13,WUHU216WMR100,2013-01-29 03:37:00,
2013-01-28 21:42:00,41.0,40.7,29.89,SE,128,4.4,6.3,99,0.00,,,0.13,WUHU216WMR100,2013-01-29 03:42:00,
2013-01-28 21:47:00,41.0,40.7,29.89,ESE,112,4.1,6.3,99,0.00,,,0.13,WUHU216WMR100,2013-01-29 03:47:00,
2013-01-28 21:52:00,41.2,40.9,29.89,SE,135,4.1,5.9,99,0.00,,,0.13,WUHU216WMR100,2013-01-29 03:52:00,
2013-01-28 21:57:00,41.2,40.9,29.89,ESE,112,4.5,5.1,99,0.00,,,0.13,WUHU216WMR100,2013-01-29 03:57:00,
2013-01-28 22:02:00,41.2,40.9,29.89,ESE,112,4.1,4.8,99,0.00,,,0.13,WUHU216WMR100,2013-01-29 04:02:00,
2013-01-28 22:07:00,41.4,41.1,29.89,ESE,112,4.1,4.5,99,0.00,,,0.13,WUHU216WMR100,2013-01-29 04:07:00,
2013-01-28 22:12:00,41.5,41.2,29.89,ESE,112,5.9,5.9,99,0.00,,,0.13,WUHU216WMR100,2013-01-29 04:12:00,
2013-01-28 22:17:00,41.5,41.2,29.89,ESE,112,4.5,5.9,99,0.00,,,0.13,WUHU216WMR100,2013-01-29 04:17:00,
2013-01-28 22:22:00,41.4,41.1,29.86,ESE,112,4.4,5.9,99,0.00,,,0.13,WUHU216WMR100,2013-01-29 04:22:00,
2013-01-28 22:27:00,41.5,41.2,29.86,SSE,157,5.6,5.6,99,0.00,,,0.13,WUHU216WMR100,2013-01-29 04:27:00,
2013-01-28 22:32:00,41.7,41.4,29.86,SE,141,4.2,7.1,99,0.00,,,0.13,WUHU216WMR100,2013-01-29 04:32:00,
2013-01-28 22:37:00,42.1,41.8,29.86,SSE,163,5.8,7.1,99,0.00,,,0.13,WUHU216WMR100,2013-01-29 04:37:00,
2013-01-28 22:42:00,42.4,42.1,29.86,SE,135,7.1,8.1,99,0.00,,,0.13,WUHU216WMR100,2013-01-29 04:42:00,
2013-01-28 22:47:00,42.8,42.5,29.86,SE,135,5.1,8.1,99,0.00,,,0.13,WUHU216WMR100,2013-01-29 04:47:00,
2013-01-28 22:52:00,43.2,42.9,29.86,SE,124,5.2,8.1,99,0.00,,,0.13,WUHU216WMR100,2013-01-29 04:52:00,
2013-01-28 22:57:00,43.3,43.0,29.86,ESE,108,4.6,7.1,99,0.00,,,0.13,WUHU216WMR100,2013-01-29 04:57:00,
2013-01-28 23:01:00,43.5,43.2,29.86,SE,125,5.4,6.6,99,0.00,,,0.13,WUHU216WMR100,2013-01-29 05:01:00,
2013-01-28 23:02:00,43.5,43.2,29.86,ESE,112,5.1,5.6,99,0.00,,,0.13,WUHU216WMR100,2013-01-29 05:02:00,
2013-01-28 23:03:00,43.7,43.4,29.86,ESE,112,4.3,5.6,99,0.00,,,0.13,WUHU216WMR100,2013-01-29 05:03:00,
2013-01-28 23:08:00,44.1,43.8,29.86,SE,135,5.6,8.1,99,0.00,,,0.13,WUHU216WMR100,2013-01-29 05:08:00,
2013-01-28 23:13:00,44.1,43.8,29.86,SE,124,6.6,8.1,99,0.00,,,0.13,WUHU216WMR100,2013-01-29 05:13:00,
2013-01-28 23:18:00,44.1,43.8,29.83,ESE,102,8.0,8.9,99,0.00,,,0.13,WUHU216WMR100,2013-01-29 05:18:00,
2013-01-28 23:23:00,44.2,43.9,29.83,ESE,118,7.0,9.6,99,0.00,,,0.13,WUHU216WMR100,2013-01-29 05:23:00,
2013-01-28 23:28:00,44.4,44.1,29.83,East,96,8.1,10.4,99,0.08,,,0.21,WUHU216WMR100,2013-01-29 05:28:00,
2013-01-28 23:33:00,44.8,44.5,29.83,North,355,5.7,10.4,99,0.08,,,0.21,WUHU216WMR100,2013-01-29 05:33:00,
2013-01-28 23:38:00,45.0,44.7,29.83,NW,315,9.6,9.6,99,0.08,,,0.21,WUHU216WMR100,2013-01-29 05:38:00,
2013-01-28 23:43:00,45.1,44.8,29.83,East,82,9.4,9.9,99,0.12,,,0.25,WUHU216WMR100,2013-01-29 05:43:00,
2013-01-28 23:48:00,45.3,45.0,29.86,WNW,291,4.7,9.9,99,0.12,,,0.25,WUHU216WMR100,2013-01-29 05:48:00,
2013-01-28 23:53:00,45.9,45.6,29.86,SSE,157,5.1,7.1,99,0.12,,,0.25,WUHU216WMR100,2013-01-29 05:53:00,
2013-01-28 23:58:00,46.0,45.7,29.86,WSW,247,2.6,7.1,99,0.12,,,0.25,WUHU216WMR100,2013-01-29 05:58:00,